createdAt,value
2024-04-13T00:00:58.938Z,94.48
2024-04-13T00:01:59.629Z,95.29
2024-04-13T00:02:58.955Z,94.99
2024-04-13T00:03:59.589Z,93.96
2024-04-13T00:04:58.886Z,93.35
2024-04-13T00:05:58.441Z,91.20
2024-04-13T00:06:59.473Z,91.71
2024-04-13T00:07:58.406Z,91.09
2024-04-13T00:08:59.448Z,91.82
2024-04-13T00:09:58.767Z,90.89
2024-04-13T00:10:58.761Z,90.17
2024-04-13T00:11:58.358Z,89.56
2024-04-13T00:12:58.757Z,88.23
2024-04-13T00:13:59.381Z,86.58
2024-04-13T00:14:58.755Z,85.05
2024-04-13T00:15:58.667Z,83.51
2024-04-13T00:16:58.759Z,82.79
2024-04-13T00:17:59.874Z,82.90
2024-04-13T00:18:58.373Z,83.61
2024-04-13T00:19:58.659Z,85.36
2024-04-13T00:20:58.620Z,86.99
2024-04-13T00:21:58.609Z,89.15
2024-04-13T00:22:58.602Z,89.45
2024-04-13T00:23:59.242Z,88.94
2024-04-13T00:24:58.574Z,88.74
2024-04-13T00:25:59.215Z,89.25
2024-04-13T00:26:59.205Z,90.28
2024-04-13T00:27:58.341Z,92.83
2024-04-13T00:28:58.516Z,95.09
2024-04-13T00:29:59.726Z,94.52
2024-04-13T00:30:58.527Z,94.93
2024-04-13T00:31:59.116Z,95.65
2024-04-13T00:32:58.593Z,94.42
2024-04-13T00:33:59.090Z,93.29
2024-04-13T00:34:58.461Z,92.16
2024-04-13T00:35:58.412Z,91.86
2024-04-13T00:36:59.612Z,91.86
2024-04-13T00:37:58.401Z,91.86
2024-04-13T00:38:58.380Z,91.86
2024-04-13T00:39:59.033Z,92.98
2024-04-13T00:40:59.004Z,94.42
2024-04-13T00:41:58.367Z,94.11
2024-04-13T00:42:58.971Z,94.83
2024-04-13T00:43:58.307Z,94.32
2024-04-13T00:44:58.318Z,92.57
2024-04-13T00:45:58.927Z,91.14
2024-04-13T00:46:58.266Z,90.73
2024-04-13T00:47:59.561Z,90.93
2024-04-13T00:48:58.313Z,90.73
2024-04-13T00:49:58.880Z,91.03
2024-04-13T00:50:58.911Z,92.06
2024-04-13T00:51:58.199Z,92.98
2024-04-13T00:52:58.175Z,92.78
2024-04-13T00:53:59.388Z,93.19
2024-04-13T00:54:58.806Z,92.36
2024-04-13T00:55:58.790Z,93.19
2024-04-13T00:56:58.175Z,93.13
2024-04-13T00:57:58.111Z,92.41
2024-04-13T00:58:58.778Z,92.51
2024-04-13T00:59:58.114Z,93.74
2024-04-13T01:00:58.506Z,94.21
2024-04-13T01:01:58.727Z,94.52
2024-04-13T01:02:58.070Z,95.24
2024-04-13T01:03:58.114Z,96.16
2024-04-13T01:04:58.025Z,96.26
2024-04-13T01:05:58.019Z,96.20
2024-04-13T01:06:57.991Z,96.20
2024-04-13T01:07:58.022Z,95.69
2024-04-13T01:08:58.616Z,95.28
2024-04-13T01:09:57.949Z,94.98
2024-04-13T01:10:58.605Z,94.87
2024-04-13T01:11:58.651Z,93.54
2024-04-13T01:12:58.583Z,93.54
2024-04-13T01:13:58.557Z,92.41
2024-04-13T01:14:58.548Z,91.80
2024-04-13T01:15:57.637Z,91.18
2024-04-13T01:16:57.856Z,92.82
2024-04-13T01:17:57.589Z,93.13
2024-04-13T01:18:58.510Z,92.93
2024-04-13T01:19:58.452Z,94.05
2024-04-13T01:20:57.803Z,94.87
2024-04-13T01:21:58.473Z,95.28
2024-04-13T01:22:57.791Z,96.51
2024-04-13T01:23:58.457Z,95.59
2024-04-13T01:24:58.387Z,94.56
2024-04-13T01:25:57.597Z,92.82
2024-04-13T01:26:58.374Z,91.59
2024-04-13T01:27:58.364Z,90.26
2024-04-13T01:28:58.343Z,89.03
2024-04-13T01:29:57.680Z,89.54
2024-04-13T01:30:57.663Z,89.43
2024-04-13T01:31:57.022Z,89.64
2024-04-13T01:32:58.387Z,90.67
2024-04-13T01:33:57.686Z,89.64
2024-04-13T01:34:57.614Z,89.54
2024-04-13T01:35:57.589Z,88.21
2024-04-13T01:36:57.575Z,87.18
2024-04-13T01:37:58.228Z,87.84
2024-04-13T01:38:57.567Z,88.35
2024-04-13T01:39:58.195Z,88.86
2024-04-13T01:40:57.539Z,90.09
2024-04-13T01:41:57.509Z,90.71
2024-04-13T01:42:57.506Z,91.22
2024-04-13T01:43:57.477Z,92.25
2024-04-13T01:44:58.133Z,91.84
2024-04-13T01:45:57.438Z,90.71
2024-04-13T01:46:57.435Z,89.89
2024-04-13T01:47:57.501Z,89.27
2024-04-13T01:48:57.522Z,90.81
2024-04-13T01:49:57.420Z,92.55
2024-04-13T01:50:57.409Z,93.27
2024-04-13T01:51:57.386Z,94.61
2024-04-13T01:52:57.399Z,93.68
2024-04-13T01:53:57.361Z,92.97
2024-04-13T01:54:58.012Z,93.48
2024-04-13T01:55:57.967Z,93.99
2024-04-13T01:56:57.946Z,95.47
2024-04-13T01:57:57.940Z,95.98
2024-04-13T01:58:57.923Z,96.09
2024-04-13T01:59:57.942Z,95.06
2024-04-13T02:00:57.969Z,93.12
2024-04-13T02:01:57.926Z,93.01
2024-04-13T02:02:57.258Z,93.32
2024-04-13T02:03:57.318Z,93.42
2024-04-13T02:04:57.854Z,95.89
2024-04-13T02:05:57.831Z,96.60
2024-04-13T02:06:57.179Z,96.19
2024-04-13T02:07:57.820Z,96.23
2024-04-13T02:08:57.164Z,95.01
2024-04-13T02:09:57.109Z,92.23
2024-04-13T02:10:57.841Z,91.41
2024-04-13T02:11:57.746Z,89.76
2024-04-13T02:12:57.741Z,88.64
2024-04-13T02:13:57.059Z,88.23
2024-04-13T02:14:57.710Z,88.02
2024-04-13T02:15:57.699Z,88.84
2024-04-13T02:16:57.689Z,89.62
2024-04-13T02:17:57.747Z,89.72
2024-04-13T02:18:58.118Z,91.16
2024-04-13T02:19:57.026Z,92.91
2024-04-13T02:20:56.985Z,94.96
2024-04-13T02:21:56.962Z,95.01
2024-04-13T02:22:57.624Z,97.37
2024-04-13T02:23:57.599Z,95.93
2024-04-13T02:24:57.575Z,96.34
2024-04-13T02:25:56.924Z,96.55
2024-04-13T02:26:57.560Z,97.88
2024-04-13T02:27:56.976Z,97.99
2024-04-13T02:28:56.889Z,96.59
2024-04-13T02:29:56.276Z,94.74
2024-04-13T02:30:57.501Z,93.61
2024-04-13T02:31:57.497Z,92.69
2024-04-13T02:32:56.943Z,91.14
2024-04-13T02:33:56.874Z,89.50
2024-04-13T02:34:57.435Z,87.75
2024-04-13T02:35:56.784Z,88.95
2024-04-13T02:36:57.401Z,89.76
2024-04-13T02:37:56.029Z,91.00
2024-04-13T02:38:56.737Z,92.38
2024-04-13T02:39:56.725Z,93.40
2024-04-13T02:40:56.699Z,93.51
2024-04-13T02:41:56.701Z,93.82
2024-04-13T02:42:56.669Z,95.67
2024-04-13T02:43:56.668Z,94.64
2024-04-13T02:44:57.306Z,92.89
2024-04-13T02:45:57.282Z,93.10
2024-04-13T02:46:56.624Z,92.48
2024-04-13T02:47:56.657Z,90.42
2024-04-13T02:48:56.786Z,88.37
2024-04-13T02:49:56.605Z,88.78
2024-04-13T02:50:56.606Z,89.91
2024-04-13T02:51:56.533Z,90.63
2024-04-13T02:52:56.522Z,90.83
2024-04-13T02:53:56.534Z,90.73
2024-04-13T02:54:56.512Z,90.57
2024-04-13T02:55:56.547Z,88.51
2024-04-13T02:56:56.460Z,87.79
2024-04-13T02:57:57.119Z,87.49
2024-04-13T02:58:56.463Z,88.17
2024-04-13T02:59:57.082Z,89.19
2024-04-13T03:00:57.119Z,89.70
2024-04-13T03:01:57.071Z,90.94
2024-04-13T03:02:57.159Z,91.29
2024-04-13T03:03:57.126Z,92.11
2024-04-13T03:04:56.365Z,92.11
2024-04-13T03:05:56.337Z,92.63
2024-04-13T03:06:57.006Z,93.14
2024-04-13T03:07:56.329Z,93.14
2024-04-13T03:08:56.358Z,92.11
2024-04-13T03:09:56.962Z,92.52
2024-04-13T03:10:57.037Z,93.44
2024-04-13T03:11:56.965Z,91.39
2024-04-13T03:12:56.276Z,90.26
2024-04-13T03:13:56.944Z,88.20
2024-04-13T03:14:56.234Z,88.20
2024-04-13T03:15:56.243Z,90.26
2024-04-13T03:16:56.221Z,89.85
2024-04-13T03:17:56.870Z,89.54
2024-04-13T03:18:56.824Z,89.54
2024-04-13T03:19:56.836Z,88.31
2024-04-13T03:20:56.840Z,86.97
2024-04-13T03:21:56.180Z,87.79
2024-04-13T03:22:56.866Z,88.82
2024-04-13T03:23:56.797Z,87.79
2024-04-13T03:24:56.749Z,86.80
2024-04-13T03:25:56.714Z,84.44
2024-04-13T03:26:55.868Z,84.54
2024-04-13T03:27:56.702Z,84.13
2024-04-13T03:28:56.678Z,85.06
2024-04-13T03:29:56.006Z,87.18
2024-04-13T03:30:56.018Z,89.54
2024-04-13T03:31:56.044Z,90.88
2024-04-13T03:32:56.022Z,91.95
2024-04-13T03:33:56.039Z,92.16
2024-04-13T03:34:55.797Z,92.05
2024-04-13T03:35:56.025Z,90.81
2024-04-13T03:36:56.584Z,90.81
2024-04-13T03:37:55.922Z,91.02
2024-04-13T03:38:55.900Z,93.70
2024-04-13T03:39:55.877Z,94.83
2024-04-13T03:40:55.858Z,92.67
2024-04-13T03:41:56.509Z,93.59
2024-04-13T03:42:57.051Z,92.36
2024-04-13T03:43:57.058Z,92.57
2024-04-13T03:44:56.473Z,92.16
2024-04-13T03:45:57.002Z,92.05
2024-04-13T03:46:55.798Z,91.47
2024-04-13T03:47:56.496Z,89.38
2024-04-13T03:48:55.844Z,86.91
2024-04-13T03:49:55.791Z,85.98
2024-04-13T03:50:55.077Z,85.88
2024-04-13T03:51:55.723Z,86.50
2024-04-13T03:52:55.705Z,86.60
2024-04-13T03:53:56.368Z,87.84
2024-04-13T03:54:55.700Z,89.38
2024-04-13T03:55:55.703Z,88.86
2024-04-13T03:56:56.316Z,90.03
2024-04-13T03:57:55.619Z,90.55
2024-04-13T03:58:56.281Z,91.06
2024-04-13T03:59:55.620Z,91.99
2024-04-13T04:00:55.685Z,91.17
2024-04-13T04:01:55.598Z,89.52
2024-04-13T04:02:56.219Z,88.70
2024-04-13T04:03:55.692Z,88.70
2024-04-13T04:04:55.595Z,88.90
2024-04-13T04:05:55.549Z,89.52
2024-04-13T04:06:56.151Z,90.14
2024-04-13T04:07:55.485Z,91.38
2024-04-13T04:08:55.490Z,91.78
2024-04-13T04:09:55.522Z,93.02
2024-04-13T04:10:56.151Z,91.68
2024-04-13T04:11:56.205Z,90.86
2024-04-13T04:12:56.106Z,91.58
2024-04-13T04:13:56.073Z,92.71
2024-04-13T04:14:55.417Z,96.25
2024-04-13T04:15:56.042Z,95.33
2024-04-13T04:16:55.372Z,94.92
2024-04-13T04:17:55.418Z,95.02
2024-04-13T04:18:56.174Z,94.30
2024-04-13T04:19:55.336Z,93.99
2024-04-13T04:20:55.325Z,93.58
2024-04-13T04:21:55.974Z,93.99
2024-04-13T04:22:55.300Z,96.36
2024-04-13T04:23:55.985Z,94.30
2024-04-13T04:24:55.291Z,94.65
2024-04-13T04:25:55.926Z,95.48
2024-04-13T04:26:55.897Z,95.48
2024-04-13T04:27:55.236Z,93.31
2024-04-13T04:28:55.215Z,90.33
2024-04-13T04:29:55.208Z,88.37
2024-04-13T04:30:54.734Z,86.21
2024-04-13T04:31:55.821Z,85.49
2024-04-13T04:32:55.352Z,85.44
2024-04-13T04:33:55.876Z,86.99
2024-04-13T04:34:55.131Z,87.92
2024-04-13T04:35:55.108Z,89.09
2024-04-13T04:36:54.385Z,89.40
2024-04-13T04:37:55.103Z,88.68
2024-04-13T04:38:54.312Z,89.40
2024-04-13T04:39:55.076Z,87.75
2024-04-13T04:40:55.767Z,86.82
2024-04-13T04:41:55.759Z,85.94
2024-04-13T04:42:55.694Z,85.79
2024-04-13T04:43:54.603Z,88.06
2024-04-13T04:44:54.619Z,87.54
2024-04-13T04:45:54.966Z,88.68
2024-04-13T04:46:54.624Z,89.61
2024-04-13T04:47:55.713Z,90.12
2024-04-13T04:48:55.673Z,90.43
2024-04-13T04:49:55.586Z,91.05
2024-04-13T04:50:54.905Z,91.46
2024-04-13T04:51:54.909Z,93.01
2024-04-13T04:52:54.789Z,93.52
2024-04-13T04:53:54.943Z,92.29
2024-04-13T04:54:54.779Z,91.77
2024-04-13T04:55:55.492Z,90.53
2024-04-13T04:56:54.850Z,88.47
2024-04-13T04:57:54.830Z,87.44
2024-04-13T04:58:54.822Z,86.72
2024-04-13T04:59:56.005Z,87.13
2024-04-13T05:00:54.503Z,87.75
2024-04-13T05:01:57.249Z,89.40
2024-04-13T05:02:54.760Z,89.09
2024-04-13T05:03:56.077Z,89.09
2024-04-13T05:04:55.957Z,90.43
2024-04-13T05:05:55.926Z,90.43
2024-04-13T05:06:55.911Z,89.09
2024-04-13T05:07:57.094Z,89.36
2024-04-13T05:08:55.893Z,90.59
2024-04-13T05:09:55.861Z,91.52
2024-04-13T05:10:55.365Z,91.62
2024-04-13T05:11:54.647Z,92.65
2024-04-13T05:12:54.626Z,93.48
2024-04-13T05:13:54.629Z,94.51
2024-04-13T05:14:54.603Z,95.23
2024-04-13T05:15:54.593Z,95.74
2024-04-13T05:16:55.214Z,95.43
2024-04-13T05:17:54.653Z,96.05
2024-04-13T05:18:55.413Z,96.36
2024-04-13T05:19:54.543Z,95.95
2024-04-13T05:20:54.537Z,97.24
2024-04-13T05:21:54.514Z,96.11
2024-04-13T05:22:55.705Z,97.86
2024-04-13T05:23:54.497Z,98.27
2024-04-13T05:24:54.460Z,98.58
2024-04-13T05:25:54.477Z,99.35
2024-04-13T05:26:54.463Z,99.99
2024-04-13T05:27:54.396Z,99.99
2024-04-13T05:28:55.599Z,99.99
2024-04-13T05:29:54.396Z,99.99
2024-04-13T05:30:54.386Z,99.99
2024-04-13T05:31:54.369Z,99.99
2024-04-13T05:32:53.793Z,99.99
2024-04-13T05:33:54.436Z,99.99
2024-04-13T05:34:55.001Z,99.99
2024-04-13T05:35:54.389Z,99.99
2024-04-13T05:36:54.298Z,99.99
2024-04-13T05:37:54.941Z,99.99
2024-04-13T05:38:54.919Z,99.99
2024-04-13T05:39:54.281Z,99.99
2024-04-13T05:40:53.481Z,99.99
2024-04-13T05:41:54.216Z,99.99
2024-04-13T05:42:53.569Z,99.73
2024-04-13T05:43:54.860Z,99.21
2024-04-13T05:44:54.195Z,99.11
2024-04-13T05:45:54.831Z,99.79
2024-04-13T05:46:54.853Z,99.99
2024-04-13T05:47:54.224Z,99.99
2024-04-13T05:48:53.396Z,99.99
2024-04-13T05:49:54.790Z,99.99
2024-04-13T05:50:57.667Z,99.99
2024-04-13T05:51:54.138Z,99.99
2024-04-13T05:52:54.100Z,99.99
2024-04-13T05:53:55.258Z,99.99
2024-04-13T05:54:54.695Z,99.99
2024-04-13T05:55:54.011Z,99.99
2024-04-13T05:56:54.000Z,99.99
2024-04-13T05:57:54.821Z,99.99
2024-04-13T05:58:54.650Z,99.99
2024-04-13T05:59:55.184Z,99.99
2024-04-13T06:00:55.306Z,99.99
2024-04-13T06:01:53.963Z,99.99
2024-04-13T06:02:55.255Z,99.99
2024-04-13T06:03:55.155Z,99.99
2024-04-13T06:04:53.943Z,99.99
2024-04-13T06:05:55.094Z,99.99
2024-04-13T06:06:53.886Z,99.99
2024-04-13T06:07:53.893Z,99.99
2024-04-13T06:08:53.871Z,99.99
2024-04-13T06:09:53.830Z,99.99
2024-04-13T06:10:54.527Z,99.99
2024-04-13T06:11:53.840Z,99.99
2024-04-13T06:12:54.450Z,99.99
2024-04-13T06:13:54.452Z,99.99
2024-04-13T06:14:53.769Z,99.99
2024-04-13T06:15:54.439Z,99.99
2024-04-13T06:16:54.498Z,99.99
2024-04-13T06:17:53.735Z,99.99
2024-04-13T06:18:54.414Z,99.99
2024-04-13T06:19:53.692Z,99.99
2024-04-13T06:20:54.334Z,99.99
2024-04-13T06:21:53.683Z,99.99
2024-04-13T06:22:53.681Z,99.99
2024-04-13T06:23:54.320Z,99.99
2024-04-13T06:24:53.665Z,99.99
2024-04-13T06:25:54.274Z,99.99
2024-04-13T06:26:53.609Z,99.99
2024-04-13T06:27:54.246Z,99.99
2024-04-13T06:28:53.604Z,99.99
2024-04-13T06:29:53.609Z,99.99
2024-04-13T06:30:53.584Z,99.99
2024-04-13T06:31:54.223Z,99.99
2024-04-13T06:32:53.590Z,99.99
2024-04-13T06:33:53.740Z,99.99
2024-04-13T06:34:53.495Z,99.99
2024-04-13T06:35:54.125Z,99.99
2024-04-13T06:36:53.493Z,99.99
2024-04-13T06:37:53.470Z,99.99
2024-04-13T06:38:53.462Z,99.99
2024-04-13T06:39:54.107Z,99.99
2024-04-13T06:40:54.062Z,99.99
2024-04-13T06:41:54.038Z,99.99
2024-04-13T06:42:53.431Z,99.99
2024-04-13T06:43:54.010Z,99.99
2024-04-13T06:44:52.597Z,99.99
2024-04-13T06:45:53.352Z,99.99
2024-04-13T06:46:53.428Z,99.99
2024-04-13T06:47:53.329Z,99.99
2024-04-13T06:48:53.976Z,99.99
2024-04-13T06:49:54.635Z,99.99
2024-04-13T06:50:53.278Z,99.99
2024-04-13T06:51:52.894Z,99.99
2024-04-13T06:52:52.892Z,99.99
2024-04-13T06:53:53.878Z,99.99
2024-04-13T06:54:53.233Z,99.99
2024-04-13T06:55:53.864Z,99.99
2024-04-13T06:56:53.837Z,99.99
2024-04-13T06:57:53.155Z,99.99
2024-04-13T06:58:53.156Z,98.75
2024-04-13T06:59:54.370Z,96.47
2024-04-13T07:00:54.447Z,94.66
2024-04-13T07:01:53.785Z,90.14
2024-04-13T07:02:53.778Z,88.75
2024-04-13T07:03:53.790Z,86.53
2024-04-13T07:04:53.085Z,83.65
2024-04-13T07:05:52.357Z,83.01
2024-04-13T07:06:54.314Z,80.30
2024-04-13T07:07:53.040Z,78.41
2024-04-13T07:08:53.672Z,76.69
2024-04-13T07:09:53.704Z,78.04
2024-04-13T07:10:53.689Z,78.24
2024-04-13T07:11:52.983Z,78.44
2024-04-13T07:12:53.011Z,78.75
2024-04-13T07:13:53.611Z,77.60
2024-04-13T07:14:54.136Z,77.26
2024-04-13T07:15:53.060Z,76.55
2024-04-13T07:16:55.059Z,76.42
2024-04-13T07:17:53.671Z,74.87
2024-04-13T07:18:54.114Z,73.82
2024-04-13T07:19:54.071Z,74.43
2024-04-13T07:20:54.099Z,75.60
2024-04-13T07:21:53.543Z,77.26
2024-04-13T07:22:52.838Z,79.11
2024-04-13T07:23:52.817Z,78.47
2024-04-13T07:24:53.445Z,77.97
2024-04-13T07:25:52.770Z,77.62
2024-04-13T07:26:53.983Z,76.44
2024-04-13T07:27:52.885Z,74.59
2024-04-13T07:28:52.758Z,73.45
2024-04-13T07:29:53.388Z,72.51
2024-04-13T07:30:52.728Z,73.01
2024-04-13T07:31:53.366Z,72.14
2024-04-13T07:32:52.735Z,71.20
2024-04-13T07:33:53.419Z,70.16
2024-04-13T07:34:52.672Z,68.92
2024-04-13T07:35:52.666Z,68.05
2024-04-13T07:36:55.359Z,70.53
2024-04-13T07:37:53.265Z,70.19
2024-04-13T07:38:53.303Z,69.99
2024-04-13T07:39:52.620Z,69.06
2024-04-13T07:40:52.611Z,68.72
2024-04-13T07:41:52.593Z,67.42
2024-04-13T07:42:52.583Z,67.08
2024-04-13T07:43:52.537Z,67.82
2024-04-13T07:44:52.568Z,66.38
2024-04-13T07:45:52.535Z,66.25
2024-04-13T07:46:53.162Z,64.59
2024-04-13T07:47:52.539Z,63.61
2024-04-13T07:48:52.562Z,64.45
2024-04-13T07:49:52.464Z,64.78
2024-04-13T07:50:53.092Z,65.91
2024-04-13T07:51:52.497Z,65.55
2024-04-13T07:52:52.463Z,64.15
2024-04-13T07:53:53.612Z,62.12
2024-04-13T07:54:52.405Z,62.39
2024-04-13T07:55:52.108Z,60.96
2024-04-13T07:56:52.108Z,60.21
2024-04-13T07:57:52.138Z,60.93
2024-04-13T07:58:53.009Z,61.90
2024-04-13T07:59:52.338Z,59.75
2024-04-13T08:00:53.094Z,58.68
2024-04-13T08:01:52.155Z,61.40
2024-04-13T08:02:52.187Z,63.35
2024-04-13T08:03:52.194Z,64.62
2024-04-13T08:04:52.109Z,64.15
2024-04-13T08:05:51.548Z,63.39
2024-04-13T08:06:53.475Z,64.42
2024-04-13T08:07:52.196Z,62.12
2024-04-13T08:08:52.172Z,61.89
2024-04-13T08:09:52.141Z,61.04
2024-04-13T08:10:51.444Z,60.91
2024-04-13T08:11:52.197Z,60.80
2024-04-13T08:12:51.438Z,60.74
2024-04-13T08:13:51.406Z,61.99
2024-04-13T08:14:52.122Z,62.70
2024-04-13T08:15:52.290Z,63.43
2024-04-13T08:16:52.854Z,62.30
2024-04-13T08:17:52.091Z,61.00
2024-04-13T08:18:52.138Z,61.74
2024-04-13T08:19:51.459Z,59.59
2024-04-13T08:20:52.681Z,58.76
2024-04-13T08:21:51.374Z,57.93
2024-04-13T08:22:51.984Z,58.29
2024-04-13T08:23:52.007Z,57.15
2024-04-13T08:24:52.710Z,56.65
2024-04-13T08:25:51.970Z,58.01
2024-04-13T08:26:52.620Z,57.82
2024-04-13T08:27:51.480Z,58.50
2024-04-13T08:28:51.924Z,57.37
2024-04-13T08:29:51.145Z,57.00
2024-04-13T08:30:52.028Z,59.41
2024-04-13T08:31:51.914Z,60.80
2024-04-13T08:32:51.906Z,60.17
2024-04-13T08:33:51.997Z,59.19
2024-04-13T08:34:52.516Z,57.87
2024-04-13T08:35:51.064Z,57.97
2024-04-13T08:36:52.521Z,57.45
2024-04-13T08:37:51.812Z,57.54
2024-04-13T08:38:51.837Z,56.59
2024-04-13T08:39:51.799Z,56.40
2024-04-13T08:40:52.428Z,56.89
2024-04-13T08:41:51.732Z,56.45
2024-04-13T08:42:51.784Z,58.29
2024-04-13T08:43:52.398Z,58.04
2024-04-13T08:44:54.214Z,56.52
2024-04-13T08:45:51.756Z,57.24
2024-04-13T08:46:52.329Z,57.22
2024-04-13T08:47:52.413Z,56.52
2024-04-13T08:48:52.441Z,57.28
2024-04-13T08:49:51.020Z,58.74
2024-04-13T08:50:52.283Z,56.00
2024-04-13T08:51:50.882Z,56.14
2024-04-13T08:52:52.242Z,55.10
2024-04-13T08:53:52.240Z,54.00
2024-04-13T08:54:51.612Z,54.21
2024-04-13T08:55:51.536Z,55.27
2024-04-13T08:56:51.578Z,55.70
2024-04-13T08:57:52.231Z,55.67
2024-04-13T08:58:51.522Z,54.95
2024-04-13T08:59:50.755Z,54.21
2024-04-13T09:00:52.244Z,53.73
2024-04-13T09:01:51.033Z,52.79
2024-04-13T09:02:51.510Z,52.24
2024-04-13T09:03:51.517Z,51.75
2024-04-13T09:04:51.411Z,51.70
2024-04-13T09:05:51.399Z,52.89
2024-04-13T09:06:51.135Z,53.33
2024-04-13T09:07:50.968Z,55.40
2024-04-13T09:08:52.028Z,55.70
2024-04-13T09:09:50.816Z,54.55
2024-04-13T09:10:51.407Z,53.41
2024-04-13T09:11:51.997Z,52.69
2024-04-13T09:12:51.346Z,53.11
2024-04-13T09:13:53.015Z,54.43
2024-04-13T09:14:51.326Z,53.51
2024-04-13T09:15:51.997Z,53.48
2024-04-13T09:16:51.941Z,53.31
2024-04-13T09:17:52.483Z,53.58
2024-04-13T09:18:52.076Z,53.26
2024-04-13T09:19:51.216Z,51.72
2024-04-13T09:20:51.218Z,52.44
2024-04-13T09:21:50.805Z,53.41
2024-04-13T09:22:51.236Z,54.23
2024-04-13T09:23:51.823Z,53.63
2024-04-13T09:24:51.844Z,53.83
2024-04-13T09:25:50.858Z,54.68
2024-04-13T09:26:51.145Z,54.33
2024-04-13T09:27:51.792Z,53.93
2024-04-13T09:28:51.797Z,54.95
2024-04-13T09:29:51.080Z,55.02
2024-04-13T09:30:50.475Z,54.00
2024-04-13T09:31:51.730Z,55.00
2024-04-13T09:32:51.775Z,53.61
2024-04-13T09:33:52.319Z,54.60
2024-04-13T09:34:51.708Z,54.15
2024-04-13T09:35:52.219Z,53.16
2024-04-13T09:36:51.673Z,53.19
2024-04-13T09:37:51.000Z,53.16
2024-04-13T09:38:52.198Z,52.71
2024-04-13T09:39:52.228Z,53.38
2024-04-13T09:40:51.652Z,52.81
2024-04-13T09:41:50.930Z,52.31
2024-04-13T09:42:50.952Z,52.84
2024-04-13T09:43:50.893Z,53.38
2024-04-13T09:44:51.548Z,53.28
2024-04-13T09:45:50.184Z,54.53
2024-04-13T09:46:50.870Z,54.90
2024-04-13T09:47:51.596Z,54.10
2024-04-13T09:48:51.017Z,55.97
2024-04-13T09:49:50.865Z,54.90
2024-04-13T09:50:51.464Z,54.70
2024-04-13T09:51:50.853Z,55.02
2024-04-13T09:52:50.765Z,56.12
2024-04-13T09:53:51.438Z,56.68
2024-04-13T09:54:50.900Z,56.65
2024-04-13T09:55:51.389Z,54.78
2024-04-13T09:56:50.793Z,53.91
2024-04-13T09:57:50.768Z,53.63
2024-04-13T09:58:51.910Z,52.66
2024-04-13T09:59:50.746Z,53.33
2024-04-13T10:00:51.431Z,53.70
2024-04-13T10:01:50.714Z,51.97
2024-04-13T10:02:51.441Z,52.56
2024-04-13T10:03:49.923Z,52.76
2024-04-13T10:04:51.279Z,53.51
2024-04-13T10:05:50.619Z,53.78
2024-04-13T10:06:50.628Z,53.51
2024-04-13T10:07:50.594Z,54.10
2024-04-13T10:08:50.590Z,53.38
2024-04-13T10:09:50.161Z,54.28
2024-04-13T10:10:50.602Z,55.47
2024-04-13T10:11:51.198Z,56.42
2024-04-13T10:12:50.583Z,57.45
2024-04-13T10:13:51.172Z,55.27
2024-04-13T10:14:50.487Z,54.48
2024-04-13T10:15:51.196Z,53.98
2024-04-13T10:16:51.191Z,54.75
2024-04-13T10:17:50.335Z,55.97
2024-04-13T10:18:50.337Z,55.10
2024-04-13T10:19:50.432Z,53.21
2024-04-13T10:20:50.449Z,53.66
2024-04-13T10:21:50.524Z,53.78
2024-04-13T10:22:51.041Z,53.13
2024-04-13T10:23:50.378Z,53.41
2024-04-13T10:24:51.728Z,53.13
2024-04-13T10:25:50.348Z,52.19
2024-04-13T10:26:51.522Z,51.92
2024-04-13T10:27:51.524Z,51.30
2024-04-13T10:28:50.962Z,52.96
2024-04-13T10:29:51.527Z,52.09
2024-04-13T10:30:52.359Z,53.26
2024-04-13T10:31:51.543Z,51.23
2024-04-13T10:32:51.474Z,51.62
2024-04-13T10:33:50.289Z,52.86
2024-04-13T10:34:50.230Z,53.53
2024-04-13T10:35:50.242Z,53.26
2024-04-13T10:36:50.851Z,54.94
2024-04-13T10:37:51.379Z,53.66
2024-04-13T10:38:51.367Z,53.13
2024-04-13T10:39:51.457Z,52.71
2024-04-13T10:40:50.149Z,52.19
2024-04-13T10:41:51.335Z,51.67
2024-04-13T10:42:52.082Z,51.03
2024-04-13T10:43:50.770Z,49.94
2024-04-13T10:44:50.081Z,49.84
2024-04-13T10:45:50.340Z,51.89
2024-04-13T10:46:50.728Z,52.49
2024-04-13T10:47:50.152Z,53.16
2024-04-13T10:48:50.777Z,54.13
2024-04-13T10:49:55.089Z,53.66
2024-04-13T10:50:51.027Z,53.43
2024-04-13T10:51:49.456Z,53.66
2024-04-13T10:52:49.986Z,54.95
2024-04-13T10:53:49.964Z,54.08
2024-04-13T10:54:50.627Z,52.02
2024-04-13T10:55:49.955Z,51.52
2024-04-13T10:56:52.479Z,49.96
2024-04-13T10:57:51.254Z,47.67
2024-04-13T10:58:50.578Z,47.87
2024-04-13T10:59:49.923Z,47.33
2024-04-13T11:00:50.590Z,46.54
2024-04-13T11:01:50.514Z,46.91
2024-04-13T11:02:49.903Z,47.53
2024-04-13T11:03:49.890Z,47.57
2024-04-13T11:04:49.842Z,48.03
2024-04-13T11:05:50.456Z,49.69
2024-04-13T11:06:50.596Z,50.73
2024-04-13T11:07:49.770Z,49.64
2024-04-13T11:08:49.803Z,49.02
2024-04-13T11:09:50.495Z,48.11
2024-04-13T11:10:49.762Z,47.60
2024-04-13T11:11:49.790Z,47.38
2024-04-13T11:12:49.767Z,46.88
2024-04-13T11:13:49.716Z,47.28
2024-04-13T11:14:48.946Z,47.16
2024-04-13T11:15:49.767Z,48.39
2024-04-13T11:16:49.675Z,50.09
2024-04-13T11:17:49.753Z,48.75
2024-04-13T11:18:49.769Z,49.49
2024-04-13T11:19:49.719Z,47.15
2024-04-13T11:20:49.638Z,49.79
2024-04-13T11:21:49.613Z,50.63
2024-04-13T11:22:49.586Z,48.63
2024-04-13T11:23:49.604Z,49.15
2024-04-13T11:24:49.710Z,49.15
2024-04-13T11:25:50.200Z,49.84
2024-04-13T11:26:49.574Z,51.70
2024-04-13T11:27:49.661Z,50.56
2024-04-13T11:28:49.531Z,50.56
2024-04-13T11:29:49.244Z,48.93
2024-04-13T11:30:49.400Z,48.63
2024-04-13T11:31:49.872Z,48.61
2024-04-13T11:32:49.545Z,48.28
2024-04-13T11:33:49.506Z,47.38
2024-04-13T11:34:49.464Z,47.35
2024-04-13T11:35:49.438Z,46.22
2024-04-13T11:36:50.125Z,46.15
2024-04-13T11:37:48.795Z,46.12
2024-04-13T11:38:48.803Z,46.69
2024-04-13T11:39:48.791Z,45.93
2024-04-13T11:40:49.351Z,47.52
2024-04-13T11:41:49.330Z,47.38
2024-04-13T11:42:53.175Z,46.41
2024-04-13T11:43:51.566Z,46.45
2024-04-13T11:44:49.375Z,46.88
2024-04-13T11:45:49.003Z,47.54
2024-04-13T11:46:49.962Z,47.84
2024-04-13T11:47:49.350Z,47.54
2024-04-13T11:48:49.386Z,48.40
2024-04-13T11:49:48.599Z,49.71
2024-04-13T11:50:49.325Z,49.37
2024-04-13T11:51:49.988Z,47.96
2024-04-13T11:52:49.870Z,46.70
2024-04-13T11:53:53.006Z,45.92
2024-04-13T11:54:49.939Z,47.56
2024-04-13T11:55:50.444Z,48.30
2024-04-13T11:56:51.783Z,49.76
2024-04-13T11:57:50.134Z,50.43
2024-04-13T11:58:49.172Z,49.54
2024-04-13T11:59:49.805Z,49.34
2024-04-13T12:00:49.199Z,49.81
2024-04-13T12:01:50.317Z,49.32
2024-04-13T12:02:49.784Z,47.84
2024-04-13T12:03:49.916Z,45.50
2024-04-13T12:04:49.132Z,45.65
2024-04-13T12:05:50.252Z,44.96
2024-04-13T12:06:49.728Z,45.67
2024-04-13T12:07:49.071Z,45.67
2024-04-13T12:08:48.425Z,46.37
2024-04-13T12:09:49.106Z,46.63
2024-04-13T12:10:49.659Z,46.41
2024-04-13T12:11:49.011Z,46.29
2024-04-13T12:12:49.636Z,47.34
2024-04-13T12:13:49.620Z,48.01
2024-04-13T12:14:54.689Z,49.17
2024-04-13T12:15:49.965Z,48.90
2024-04-13T12:16:48.925Z,48.97
2024-04-13T12:17:48.259Z,49.07
2024-04-13T12:18:49.326Z,48.88
2024-04-13T12:19:48.866Z,48.23
2024-04-13T12:20:48.859Z,49.52
2024-04-13T12:21:48.433Z,48.08
2024-04-13T12:22:49.486Z,47.78
2024-04-13T12:23:48.807Z,47.37
2024-04-13T12:24:49.511Z,46.31
2024-04-13T12:25:49.455Z,47.42
2024-04-13T12:26:49.422Z,47.05
2024-04-13T12:27:49.441Z,46.26
2024-04-13T12:28:49.406Z,47.44
2024-04-13T12:29:49.394Z,46.53
2024-04-13T12:30:49.403Z,47.10
2024-04-13T12:31:48.751Z,46.15
2024-04-13T12:32:49.545Z,47.74
2024-04-13T12:33:49.418Z,46.83
2024-04-13T12:34:49.333Z,47.08
2024-04-13T12:35:49.320Z,46.47
2024-04-13T12:36:48.657Z,46.26
2024-04-13T12:37:50.706Z,46.15
2024-04-13T12:38:49.292Z,46.81
2024-04-13T12:39:48.636Z,46.81
2024-04-13T12:40:49.254Z,47.10
2024-04-13T12:41:50.718Z,45.79
2024-04-13T12:42:48.631Z,46.17
2024-04-13T12:43:48.415Z,47.40
2024-04-13T12:44:49.190Z,47.18
2024-04-13T12:45:49.383Z,47.30
2024-04-13T12:46:49.154Z,47.52
2024-04-13T12:47:48.668Z,46.22
2024-04-13T12:48:49.746Z,46.29
2024-04-13T12:49:48.530Z,46.17
2024-04-13T12:50:49.660Z,46.01
2024-04-13T12:51:48.546Z,47.13
2024-04-13T12:52:52.309Z,47.91